sensor_id;sensor_type;location;lat;lon;timestamp;temperature;humidity
3035;DHT22;1527;48.836;9.172;2022-09-01T00:00:13;18.50;99.90
3035;DHT22;1527;48.836;9.172;2022-09-01T00:02:47;18.50;99.90
3035;DHT22;1527;48.836;9.172;2022-09-01T00:05:17;18.50;99.90
3035;DHT22;1527;48.836;9.172;2022-09-01T00:07:47;18.50;99.90
3035;DHT22;1527;48.836;9.172;2022-09-01T00:10:18;18.40;99.90
3035;DHT22;1527;48.836;9.172;2022-09-01T00:12:48;18.40;99.90
3035;DHT22;1527;48.836;9.172;2022-09-01T00:15:17;18.40;99.90
3035;DHT22;1527;48.836;9.172;2022-09-01T00:17:46;18.40;99.90
3035;DHT22;1527;48.836;9.172;2022-09-01T00:20:16;18.30;99.90
3035;DHT22;1527;48.836;9.172;2022-09-01T00:22:48;18.30;99.90
3035;DHT22;1527;48.836;9.172;2022-09-01T00:25:19;18.10;99.90
3035;DHT22;1527;48.836;9.172;2022-09-01T00:27:50;18.10;99.90
3035;DHT22;1527;48.836;9.172;2022-09-01T00:30:20;18.10;99.90
3035;DHT22;1527;48.836;9.172;2022-09-01T00:32:50;18.10;99.90
3035;DHT22;1527;48.836;9.172;2022-09-01T00:35:19;18.10;99.90
3035;DHT22;1527;48.836;9.172;2022-09-01T00:37:49;18.10;99.90
3035;DHT22;1527;48.836;9.172;2022-09-01T00:40:20;18.20;99.90
3035;DHT22;1527;48.836;9.172;2022-09-01T00:42:49;18.20;99.90
3035;DHT22;1527;48.836;9.172;2022-09-01T00:45:21;18.20;99.90
3035;DHT22;1527;48.836;9.172;2022-09-01T00:47:50;18.20;99.90
3035;DHT22;1527;48.836;9.172;2022-09-01T00:50:22;18.20;99.90
3035;DHT22;1527;48.836;9.172;2022-09-01T00:52:54;18.20;99.90
3035;DHT22;1527;48.836;9.172;2022-09-01T00:55:28;18.10;99.90
3035;DHT22;1527;48.836;9.172;2022-09-01T00:58:00;18.10;99.90
3035;DHT22;1527;48.836;9.172;2022-09-01T01:00:33;18.10;99.90
3035;DHT22;1527;48.836;9.172;2022-09-01T01:03:09;18.20;99.90
3035;DHT22;1527;48.836;9.172;2022-09-01T01:05:43;18.20;99.90
3035;DHT22;1527;48.836;9.172;2022-09-01T01:08:22;18.20;99.90
3035;DHT22;1527;48.836;9.172;2022-09-01T01:11:09;18.30;99.90
3035;DHT22;1527;48.836;9.172;2022-09-01T01:13:50;18.20;99.90
3035;DHT22;1527;48.836;9.172;2022-09-01T01:16:22;18.30;99.90
3035;DHT22;1527;48.836;9.172;2022-09-01T01:18:53;18.30;99.90
3035;DHT22;1527;48.836;9.172;2022-09-01T01:21:28;18.30;99.90
3035;DHT22;1527;48.836;9.172;2022-09-01T01:24:35;18.30;99.90
3035;DHT22;1527;48.836;9.172;2022-09-01T01:27:05;18.20;99.90
3035;DHT22;1527;48.836;9.172;2022-09-01T01:29:35;18.20;99.90
3035;DHT22;1527;48.836;9.172;2022-09-01T01:32:06;18.10;99.90
3035;DHT22;1527;48.836;9.172;2022-09-01T01:34:40;18.10;99.90
3035;DHT22;1527;48.836;9.172;2022-09-01T01:37:16;18.00;99.90
3035;DHT22;1527;48.836;9.172;2022-09-01T01:39:47;17.90;99.90
3035;DHT22;1527;48.836;9.172;2022-09-01T01:42:18;17.90;99.90
3035;DHT22;1527;48.836;9.172;2022-09-01T01:44:48;17.90;99.90
3035;DHT22;1527;48.836;9.172;2022-09-01T01:47:17;17.90;99.90
3035;DHT22;1527;48.836;9.172;2022-09-01T01:49:47;17.90;99.90
3035;DHT22;1527;48.836;9.172;2022-09-01T01:52:16;17.90;99.90
3035;DHT22;1527;48.836;9.172;2022-09-01T01:54:54;17.90;99.90
3035;DHT22;1527;48.836;9.172;2022-09-01T01:57:23;17.80;99.90
3035;DHT22;1527;48.836;9.172;2022-09-01T01:59:58;17.90;99.90
3035;DHT22;1527;48.836;9.172;2022-09-01T02:02:28;17.90;99.90
3035;DHT22;1527;48.836;9.172;2022-09-01T02:04:58;17.90;99.90
3035;DHT22;1527;48.836;9.172;2022-09-01T02:07:28;17.90;99.90
3035;DHT22;1527;48.836;9.172;2022-09-01T02:10:02;17.90;99.90
3035;DHT22;1527;48.836;9.172;2022-09-01T02:12:32;17.90;99.90
3035;DHT22;1527;48.836;9.172;2022-09-01T02:15:04;17.90;99.90
3035;DHT22;1527;48.836;9.172;2022-09-01T02:17:34;17.70;99.90
3035;DHT22;1527;48.836;9.172;2022-09-01T02:20:07;17.60;99.90
3035;DHT22;1527;48.836;9.172;2022-09-01T02:22:37;17.60;99.90
3035;DHT22;1527;48.836;9.172;2022-09-01T02:25:08;17.60;99.90
3035;DHT22;1527;48.836;9.172;2022-09-01T02:27:38;17.60;99.90
3035;DHT22;1527;48.836;9.172;2022-09-01T02:30:12;17.60;99.90
3035;DHT22;1527;48.836;9.172;2022-09-01T02:32:43;17.60;99.90
3035;DHT22;1527;48.836;9.172;2022-09-01T02:35:19;17.50;99.90
3035;DHT22;1527;48.836;9.172;2022-09-01T02:37:49;17.50;99.90
3035;DHT22;1527;48.836;9.172;2022-09-01T02:40:24;17.50;99.90
3035;DHT22;1527;48.836;9.172;2022-09-01T02:43:00;17.50;99.90
3035;DHT22;1527;48.836;9.172;2022-09-01T02:45:30;17.90;99.90
3035;DHT22;1527;48.836;9.172;2022-09-01T02:48:01;17.40;99.90
3035;DHT22;1527;48.836;9.172;2022-09-01T02:50:37;17.40;99.90
3035;DHT22;1527;48.836;9.172;2022-09-01T02:53:08;17.40;99.90
3035;DHT22;1527;48.836;9.172;2022-09-01T02:55:41;17.30;99.90
3035;DHT22;1527;48.836;9.172;2022-09-01T02:58:11;17.30;99.90
3035;DHT22;1527;48.836;9.172;2022-09-01T03:00:43;17.40;99.90
3035;DHT22;1527;48.836;9.172;2022-09-01T03:03:14;17.30;99.90
3035;DHT22;1527;48.836;9.172;2022-09-01T03:05:44;17.30;99.90
3035;DHT22;1527;48.836;9.172;2022-09-01T03:08:14;17.30;99.90
3035;DHT22;1527;48.836;9.172;2022-09-01T03:10:45;17.20;99.90
3035;DHT22;1527;48.836;9.172;2022-09-01T03:13:17;17.30;99.90
3035;DHT22;1527;48.836;9.172;2022-09-01T03:15:50;17.30;99.90
3035;DHT22;1527;48.836;9.172;2022-09-01T03:18:19;17.40;99.90
3035;DHT22;1527;48.836;9.172;2022-09-01T03:20:49;17.40;99.90
3035;DHT22;1527;48.836;9.172;2022-09-01T03:23:20;17.30;99.90
3035;DHT22;1527;48.836;9.172;2022-09-01T03:25:54;17.20;99.90
3035;DHT22;1527;48.836;9.172;2022-09-01T03:28:25;17.20;99.90
3035;DHT22;1527;48.836;9.172;2022-09-01T03:30:58;17.10;99.90
3035;DHT22;1527;48.836;9.172;2022-09-01T03:33:29;17.10;99.90
3035;DHT22;1527;48.836;9.172;2022-09-01T03:36:00;17.10;99.90
3035;DHT22;1527;48.836;9.172;2022-09-01T03:38:30;17.10;99.90
3035;DHT22;1527;48.836;9.172;2022-09-01T03:41:04;17.10;99.90
3035;DHT22;1527;48.836;9.172;2022-09-01T03:43:34;17.00;99.90
3035;DHT22;1527;48.836;9.172;2022-09-01T03:46:16;16.90;99.90
3035;DHT22;1527;48.836;9.172;2022-09-01T03:48:52;16.80;99.90
3035;DHT22;1527;48.836;9.172;2022-09-01T03:51:23;16.80;99.90
3035;DHT22;1527;48.836;9.172;2022-09-01T03:53:54;16.90;99.90
3035;DHT22;1527;48.836;9.172;2022-09-01T03:56:28;16.90;99.90
3035;DHT22;1527;48.836;9.172;2022-09-01T03:58:59;16.90;99.90
3035;DHT22;1527;48.836;9.172;2022-09-01T04:01:29;16.80;99.90
3035;DHT22;1527;48.836;9.172;2022-09-01T04:04:06;16.80;99.90
3035;DHT22;1527;48.836;9.172;2022-09-01T04:06:44;16.80;99.90
3035;DHT22;1527;48.836;9.172;2022-09-01T04:09:14;16.80;99.90
3035;DHT22;1527;48.836;9.172;2022-09-01T04:11:46;16.80;99.90
3035;DHT22;1527;48.836;9.172;2022-09-01T04:14:19;16.80;99.90
3035;DHT22;1527;48.836;9.172;2022-09-01T04:16:50;16.80;99.90
3035;DHT22;1527;48.836;9.172;2022-09-01T04:19:37;16.80;99.90
3035;DHT22;1527;48.836;9.172;2022-09-01T04:22:10;16.90;99.90
3035;DHT22;1527;48.836;9.172;2022-09-01T04:24:43;16.90;99.90
3035;DHT22;1527;48.836;9.172;2022-09-01T04:27:15;16.90;99.90
3035;DHT22;1527;48.836;9.172;2022-09-01T04:29:48;16.90;99.90
3035;DHT22;1527;48.836;9.172;2022-09-01T04:32:24;16.90;99.90
3035;DHT22;1527;48.836;9.172;2022-09-01T04:34:58;16.90;99.90
3035;DHT22;1527;48.836;9.172;2022-09-01T04:37:29;16.80;99.90
3035;DHT22;1527;48.836;9.172;2022-09-01T04:40:02;16.70;99.90
3035;DHT22;1527;48.836;9.172;2022-09-01T04:42:35;16.60;99.90
3035;DHT22;1527;48.836;9.172;2022-09-01T04:45:06;16.60;99.90
3035;DHT22;1527;48.836;9.172;2022-09-01T04:47:41;16.60;99.90
3035;DHT22;1527;48.836;9.172;2022-09-01T04:50:16;16.60;99.90
3035;DHT22;1527;48.836;9.172;2022-09-01T04:53:07;16.60;99.90
3035;DHT22;1527;48.836;9.172;2022-09-01T04:55:42;16.60;99.90
3035;DHT22;1527;48.836;9.172;2022-09-01T04:58:16;16.50;99.90
3035;DHT22;1527;48.836;9.172;2022-09-01T05:00:48;16.50;99.90
3035;DHT22;1527;48.836;9.172;2022-09-01T05:03:20;16.50;99.90
3035;DHT22;1527;48.836;9.172;2022-09-01T05:05:55;16.40;99.90
3035;DHT22;1527;48.836;9.172;2022-09-01T05:08:25;16.50;99.90
3035;DHT22;1527;48.836;9.172;2022-09-01T05:11:03;16.50;99.90
3035;DHT22;1527;48.836;9.172;2022-09-01T05:13:42;16.60;99.90
3035;DHT22;1527;48.836;9.172;2022-09-01T05:16:14;16.60;99.90
3035;DHT22;1527;48.836;9.172;2022-09-01T05:18:53;16.70;99.90
3035;DHT22;1527;48.836;9.172;2022-09-01T05:21:27;16.60;99.90
3035;DHT22;1527;48.836;9.172;2022-09-01T05:23:58;16.80;99.90
3035;DHT22;1527;48.836;9.172;2022-09-01T05:26:32;16.80;99.90
3035;DHT22;1527;48.836;9.172;2022-09-01T05:29:13;16.90;99.90
3035;DHT22;1527;48.836;9.172;2022-09-01T05:31:47;16.90;99.90
3035;DHT22;1527;48.836;9.172;2022-09-01T05:34:21;17.00;99.90
3035;DHT22;1527;48.836;9.172;2022-09-01T05:36:57;17.10;99.90
3035;DHT22;1527;48.836;9.172;2022-09-01T05:39:28;17.30;99.90
3035;DHT22;1527;48.836;9.172;2022-09-01T05:41:58;17.50;99.90
3035;DHT22;1527;48.836;9.172;2022-09-01T05:44:30;17.70;99.90
3035;DHT22;1527;48.836;9.172;2022-09-01T05:46:59;18.00;99.90
3035;DHT22;1527;48.836;9.172;2022-09-01T05:49:30;18.20;99.90
3035;DHT22;1527;48.836;9.172;2022-09-01T05:52:03;18.40;99.90
3035;DHT22;1527;48.836;9.172;2022-09-01T05:54:38;18.50;99.90
3035;DHT22;1527;48.836;9.172;2022-09-01T05:57:08;18.60;99.90
3035;DHT22;1527;48.836;9.172;2022-09-01T05:59:59;18.80;99.90
3035;DHT22;1527;48.836;9.172;2022-09-01T06:02:40;18.90;99.90
3035;DHT22;1527;48.836;9.172;2022-09-01T06:05:18;18.80;99.90
3035;DHT22;1527;48.836;9.172;2022-09-01T06:07:51;18.80;99.90
3035;DHT22;1527;48.836;9.172;2022-09-01T06:10:25;18.80;99.90
3035;DHT22;1527;48.836;9.172;2022-09-01T06:12:57;18.80;99.90
3035;DHT22;1527;48.836;9.172;2022-09-01T06:15:32;18.70;99.90
3035;DHT22;1527;48.836;9.172;2022-09-01T06:18:04;18.80;99.90
3035;DHT22;1527;48.836;9.172;2022-09-01T06:20:43;18.80;99.90
3035;DHT22;1527;48.836;9.172;2022-09-01T06:23:16;18.90;99.90
3035;DHT22;1527;48.836;9.172;2022-09-01T06:25:46;19.00;99.90
3035;DHT22;1527;48.836;9.172;2022-09-01T06:28:21;19.10;99.90
3035;DHT22;1527;48.836;9.172;2022-09-01T06:30:53;19.20;99.90
3035;DHT22;1527;48.836;9.172;2022-09-01T06:33:24;19.30;99.90
3035;DHT22;1527;48.836;9.172;2022-09-01T06:35:54;19.40;99.90
3035;DHT22;1527;48.836;9.172;2022-09-01T06:38:25;19.50;99.90
3035;DHT22;1527;48.836;9.172;2022-09-01T06:40:59;19.50;99.90
3035;DHT22;1527;48.836;9.172;2022-09-01T06:43:31;19.60;99.90
3035;DHT22;1527;48.836;9.172;2022-09-01T06:46:03;19.60;99.90
3035;DHT22;1527;48.836;9.172;2022-09-01T06:48:34;19.60;99.90
3035;DHT22;1527;48.836;9.172;2022-09-01T06:51:08;19.60;99.90
3035;DHT22;1527;48.836;9.172;2022-09-01T06:53:46;19.70;99.90
3035;DHT22;1527;48.836;9.172;2022-09-01T06:56:18;19.80;99.90
3035;DHT22;1527;48.836;9.172;2022-09-01T06:58:51;19.70;99.90
3035;DHT22;1527;48.836;9.172;2022-09-01T07:01:24;19.80;99.90
3035;DHT22;1527;48.836;9.172;2022-09-01T07:03:56;19.70;99.90
3035;DHT22;1527;48.836;9.172;2022-09-01T07:06:34;19.60;99.90
3035;DHT22;1527;48.836;9.172;2022-09-01T07:09:47;19.70;99.90
3035;DHT22;1527;48.836;9.172;2022-09-01T07:12:40;19.60;99.90
3035;DHT22;1527;48.836;9.172;2022-09-01T07:15:37;19.70;99.90
3035;DHT22;1527;48.836;9.172;2022-09-01T07:18:32;19.60;99.90
3035;DHT22;1527;48.836;9.172;2022-09-01T07:21:05;19.40;99.90
3035;DHT22;1527;48.836;9.172;2022-09-01T07:23:55;19.50;99.90
3035;DHT22;1527;48.836;9.172;2022-09-01T07:26:40;19.60;99.90
3035;DHT22;1527;48.836;9.172;2022-09-01T07:29:15;19.70;99.90
3035;DHT22;1527;48.836;9.172;2022-09-01T07:31:50;19.70;99.90
3035;DHT22;1527;48.836;9.172;2022-09-01T07:34:43;19.80;99.90
3035;DHT22;1527;48.836;9.172;2022-09-01T07:37:17;19.80;99.90
3035;DHT22;1527;48.836;9.172;2022-09-01T07:40:12;19.80;99.90
3035;DHT22;1527;48.836;9.172;2022-09-01T07:43:25;20.00;99.90
3035;DHT22;1527;48.836;9.172;2022-09-01T07:46:38;20.10;99.90
3035;DHT22;1527;48.836;9.172;2022-09-01T07:49:13;20.20;99.90
3035;DHT22;1527;48.836;9.172;2022-09-01T07:52:07;20.10;99.90
3035;DHT22;1527;48.836;9.172;2022-09-01T07:54:37;20.20;99.90
3035;DHT22;1527;48.836;9.172;2022-09-01T07:57:07;20.10;99.90
3035;DHT22;1527;48.836;9.172;2022-09-01T07:59:37;19.90;99.90
3035;DHT22;1527;48.836;9.172;2022-09-01T08:02:20;19.90;99.90
3035;DHT22;1527;48.836;9.172;2022-09-01T08:04:49;20.00;99.90
3035;DHT22;1527;48.836;9.172;2022-09-01T08:07:20;20.10;99.90
3035;DHT22;1527;48.836;9.172;2022-09-01T08:09:50;20.10;99.90
3035;DHT22;1527;48.836;9.172;2022-09-01T08:12:23;20.20;99.90
3035;DHT22;1527;48.836;9.172;2022-09-01T08:14:56;20.40;99.90
3035;DHT22;1527;48.836;9.172;2022-09-01T08:17:46;20.40;99.90
3035;DHT22;1527;48.836;9.172;2022-09-01T08:20:20;20.50;99.90
3035;DHT22;1527;48.836;9.172;2022-09-01T08:22:54;20.60;99.90
3035;DHT22;1527;48.836;9.172;2022-09-01T08:25:32;20.60;99.90
3035;DHT22;1527;48.836;9.172;2022-09-01T08:28:04;20.60;99.90
3035;DHT22;1527;48.836;9.172;2022-09-01T08:30:37;20.60;99.90
3035;DHT22;1527;48.836;9.172;2022-09-01T08:33:07;20.60;99.90
3035;DHT22;1527;48.836;9.172;2022-09-01T08:35:45;20.50;99.90
3035;DHT22;1527;48.836;9.172;2022-09-01T08:38:16;20.50;99.90
3035;DHT22;1527;48.836;9.172;2022-09-01T08:40:51;20.40;99.90
3035;DHT22;1527;48.836;9.172;2022-09-01T08:43:48;20.30;99.90
3035;DHT22;1527;48.836;9.172;2022-09-01T08:46:24;20.30;99.90
3035;DHT22;1527;48.836;9.172;2022-09-01T08:48:57;20.30;99.90
3035;DHT22;1527;48.836;9.172;2022-09-01T08:52:21;20.50;99.90
3035;DHT22;1527;48.836;9.172;2022-09-01T08:55:01;20.60;99.90
3035;DHT22;1527;48.836;9.172;2022-09-01T08:57:34;20.50;99.90
3035;DHT22;1527;48.836;9.172;2022-09-01T09:00:22;20.50;99.90
3035;DHT22;1527;48.836;9.172;2022-09-01T09:03:12;20.60;99.90
3035;DHT22;1527;48.836;9.172;2022-09-01T09:05:58;20.60;99.90
3035;DHT22;1527;48.836;9.172;2022-09-01T09:08:55;20.60;99.90
3035;DHT22;1527;48.836;9.172;2022-09-01T09:11:59;20.70;99.90
3035;DHT22;1527;48.836;9.172;2022-09-01T09:15:02;20.70;99.90
3035;DHT22;1527;48.836;9.172;2022-09-01T09:17:47;20.90;99.90
3035;DHT22;1527;48.836;9.172;2022-09-01T09:20:27;20.90;99.90
3035;DHT22;1527;48.836;9.172;2022-09-01T09:22:58;20.90;99.90
3035;DHT22;1527;48.836;9.172;2022-09-01T09:25:32;21.00;99.90
3035;DHT22;1527;48.836;9.172;2022-09-01T09:28:09;21.10;99.90
3035;DHT22;1527;48.836;9.172;2022-09-01T09:30:41;21.10;99.90
3035;DHT22;1527;48.836;9.172;2022-09-01T09:33:33;21.30;99.90
3035;DHT22;1527;48.836;9.172;2022-09-01T09:36:23;21.20;99.90
3035;DHT22;1527;48.836;9.172;2022-09-01T09:39:06;21.10;99.90
3035;DHT22;1527;48.836;9.172;2022-09-01T09:41:39;21.10;99.90
3035;DHT22;1527;48.836;9.172;2022-09-01T09:44:21;21.20;99.90
3035;DHT22;1527;48.836;9.172;2022-09-01T09:46:54;21.30;99.90
3035;DHT22;1527;48.836;9.172;2022-09-01T09:49:28;21.30;99.90
3035;DHT22;1527;48.836;9.172;2022-09-01T09:52:16;21.30;99.90
3035;DHT22;1527;48.836;9.172;2022-09-01T09:55:01;21.20;99.90
3035;DHT22;1527;48.836;9.172;2022-09-01T09:57:37;21.20;99.90
3035;DHT22;1527;48.836;9.172;2022-09-01T10:00:18;21.30;99.90
3035;DHT22;1527;48.836;9.172;2022-09-01T10:02:56;21.20;99.90
3035;DHT22;1527;48.836;9.172;2022-09-01T10:05:38;21.30;99.90
3035;DHT22;1527;48.836;9.172;2022-09-01T10:08:12;21.40;99.90
3035;DHT22;1527;48.836;9.172;2022-09-01T10:10:49;21.60;99.90
3035;DHT22;1527;48.836;9.172;2022-09-01T10:13:27;21.70;99.90
3035;DHT22;1527;48.836;9.172;2022-09-01T10:16:03;21.80;99.90
3035;DHT22;1527;48.836;9.172;2022-09-01T10:18:40;21.90;99.90
3035;DHT22;1527;48.836;9.172;2022-09-01T10:21:16;21.90;99.90
3035;DHT22;1527;48.836;9.172;2022-09-01T10:23:50;22.10;99.90
3035;DHT22;1527;48.836;9.172;2022-09-01T10:26:24;22.10;99.90
3035;DHT22;1527;48.836;9.172;2022-09-01T10:28:58;22.30;99.90
3035;DHT22;1527;48.836;9.172;2022-09-01T10:31:31;22.30;99.90
3035;DHT22;1527;48.836;9.172;2022-09-01T10:34:03;22.30;99.90
3035;DHT22;1527;48.836;9.172;2022-09-01T10:36:35;22.40;99.90
3035;DHT22;1527;48.836;9.172;2022-09-01T10:39:09;22.50;99.90
3035;DHT22;1527;48.836;9.172;2022-09-01T10:41:48;22.60;99.90
3035;DHT22;1527;48.836;9.172;2022-09-01T10:44:28;22.70;99.90
3035;DHT22;1527;48.836;9.172;2022-09-01T10:47:09;22.80;99.90
3035;DHT22;1527;48.836;9.172;2022-09-01T10:49:59;22.90;99.90
3035;DHT22;1527;48.836;9.172;2022-09-01T10:52:55;23.00;99.90
3035;DHT22;1527;48.836;9.172;2022-09-01T10:55:38;23.20;99.90
3035;DHT22;1527;48.836;9.172;2022-09-01T10:58:31;23.20;99.90
3035;DHT22;1527;48.836;9.172;2022-09-01T11:02:09;23.20;99.90
3035;DHT22;1527;48.836;9.172;2022-09-01T11:05:16;23.20;99.90
3035;DHT22;1527;48.836;9.172;2022-09-01T11:07:47;23.00;99.90
3035;DHT22;1527;48.836;9.172;2022-09-01T11:10:41;23.00;99.90
3035;DHT22;1527;48.836;9.172;2022-09-01T11:13:30;23.10;99.90
3035;DHT22;1527;48.836;9.172;2022-09-01T11:16:27;23.20;99.90
3035;DHT22;1527;48.836;9.172;2022-09-01T11:19:32;23.00;99.90
3035;DHT22;1527;48.836;9.172;2022-09-01T11:22:12;23.20;99.90
3035;DHT22;1527;48.836;9.172;2022-09-01T11:24:51;23.30;99.90
3035;DHT22;1527;48.836;9.172;2022-09-01T11:27:55;23.40;99.90
3035;DHT22;1527;48.836;9.172;2022-09-01T11:30:35;23.40;99.90
3035;DHT22;1527;48.836;9.172;2022-09-01T11:33:31;23.40;99.90
3035;DHT22;1527;48.836;9.172;2022-09-01T11:36:18;23.50;99.90
3035;DHT22;1527;48.836;9.172;2022-09-01T11:38:55;23.60;99.90
3035;DHT22;1527;48.836;9.172;2022-09-01T11:41:31;23.70;99.90
3035;DHT22;1527;48.836;9.172;2022-09-01T11:44:13;23.80;99.90
3035;DHT22;1527;48.836;9.172;2022-09-01T11:46:53;23.80;99.90
3035;DHT22;1527;48.836;9.172;2022-09-01T11:49:29;23.80;99.90
3035;DHT22;1527;48.836;9.172;2022-09-01T11:52:04;23.90;99.90
3035;DHT22;1527;48.836;9.172;2022-09-01T11:54:39;24.00;99.90
3035;DHT22;1527;48.836;9.172;2022-09-01T11:57:22;24.00;99.90
3035;DHT22;1527;48.836;9.172;2022-09-01T11:59:58;24.00;99.90
3035;DHT22;1527;48.836;9.172;2022-09-01T12:02:31;24.00;99.90
3035;DHT22;1527;48.836;9.172;2022-09-01T12:05:24;24.20;99.90
3035;DHT22;1527;48.836;9.172;2022-09-01T12:07:58;24.10;99.90
3035;DHT22;1527;48.836;9.172;2022-09-01T12:10:31;24.20;99.90
3035;DHT22;1527;48.836;9.172;2022-09-01T12:13:06;24.30;99.90
3035;DHT22;1527;48.836;9.172;2022-09-01T12:15:39;24.40;99.90
3035;DHT22;1527;48.836;9.172;2022-09-01T12:18:31;24.50;99.90
3035;DHT22;1527;48.836;9.172;2022-09-01T12:21:05;24.50;99.90
3035;DHT22;1527;48.836;9.172;2022-09-01T12:23:39;24.50;99.90
3035;DHT22;1527;48.836;9.172;2022-09-01T12:26:13;24.60;99.90
3035;DHT22;1527;48.836;9.172;2022-09-01T12:28:44;24.40;99.90
3035;DHT22;1527;48.836;9.172;2022-09-01T12:31:18;24.50;99.90
3035;DHT22;1527;48.836;9.172;2022-09-01T12:33:51;24.50;99.90
3035;DHT22;1527;48.836;9.172;2022-09-01T12:36:26;24.40;99.90
3035;DHT22;1527;48.836;9.172;2022-09-01T12:39:18;24.50;99.90
3035;DHT22;1527;48.836;9.172;2022-09-01T12:42:02;24.60;99.90
3035;DHT22;1527;48.836;9.172;2022-09-01T12:44:41;24.50;99.90
3035;DHT22;1527;48.836;9.172;2022-09-01T12:47:43;24.60;99.90
3035;DHT22;1527;48.836;9.172;2022-09-01T12:50:45;24.70;99.90
3035;DHT22;1527;48.836;9.172;2022-09-01T12:53:33;24.80;99.90
3035;DHT22;1527;48.836;9.172;2022-09-01T12:56:25;24.80;99.90
3035;DHT22;1527;48.836;9.172;2022-09-01T12:59:07;24.70;99.90
3035;DHT22;1527;48.836;9.172;2022-09-01T13:01:45;24.80;99.90
3035;DHT22;1527;48.836;9.172;2022-09-01T13:04:25;24.80;99.90
3035;DHT22;1527;48.836;9.172;2022-09-01T13:07:02;24.90;99.90
3035;DHT22;1527;48.836;9.172;2022-09-01T13:09:33;25.10;99.90
3035;DHT22;1527;48.836;9.172;2022-09-01T13:12:17;25.10;99.90
3035;DHT22;1527;48.836;9.172;2022-09-01T13:14:48;25.10;99.90
3035;DHT22;1527;48.836;9.172;2022-09-01T13:17:22;25.00;99.90
3035;DHT22;1527;48.836;9.172;2022-09-01T13:19:52;24.90;99.90
3035;DHT22;1527;48.836;9.172;2022-09-01T13:22:21;25.00;99.90
3035;DHT22;1527;48.836;9.172;2022-09-01T13:24:53;24.90;99.90
3035;DHT22;1527;48.836;9.172;2022-09-01T13:27:28;25.00;99.90
3035;DHT22;1527;48.836;9.172;2022-09-01T13:29:57;25.00;99.90
3035;DHT22;1527;48.836;9.172;2022-09-01T13:32:27;25.00;99.90
3035;DHT22;1527;48.836;9.172;2022-09-01T13:34:57;25.00;99.90
3035;DHT22;1527;48.836;9.172;2022-09-01T13:37:28;24.80;99.90
3035;DHT22;1527;48.836;9.172;2022-09-01T13:39:57;24.80;99.90
3035;DHT22;1527;48.836;9.172;2022-09-01T13:42:30;24.80;99.90
3035;DHT22;1527;48.836;9.172;2022-09-01T13:45:02;24.70;99.90
3035;DHT22;1527;48.836;9.172;2022-09-01T13:47:33;24.70;99.90
3035;DHT22;1527;48.836;9.172;2022-09-01T13:50:22;24.60;99.90
3035;DHT22;1527;48.836;9.172;2022-09-01T13:53:12;24.70;99.90
3035;DHT22;1527;48.836;9.172;2022-09-01T13:55:42;24.50;99.90
3035;DHT22;1527;48.836;9.172;2022-09-01T13:58:14;24.20;99.90
3035;DHT22;1527;48.836;9.172;2022-09-01T14:00:45;24.10;99.90
3035;DHT22;1527;48.836;9.172;2022-09-01T14:03:22;24.10;99.90
3035;DHT22;1527;48.836;9.172;2022-09-01T14:05:52;24.10;99.90
3035;DHT22;1527;48.836;9.172;2022-09-01T14:08:22;24.10;99.90
3035;DHT22;1527;48.836;9.172;2022-09-01T14:10:52;24.10;99.90
3035;DHT22;1527;48.836;9.172;2022-09-01T14:13:26;24.20;99.90
3035;DHT22;1527;48.836;9.172;2022-09-01T14:15:58;24.30;99.90
3035;DHT22;1527;48.836;9.172;2022-09-01T14:18:27;24.40;99.90
3035;DHT22;1527;48.836;9.172;2022-09-01T14:20:59;24.50;99.90
3035;DHT22;1527;48.836;9.172;2022-09-01T14:23:29;24.60;99.90
3035;DHT22;1527;48.836;9.172;2022-09-01T14:26:01;24.60;99.90
3035;DHT22;1527;48.836;9.172;2022-09-01T14:28:32;24.60;99.90
3035;DHT22;1527;48.836;9.172;2022-09-01T14:31:07;24.40;99.90
3035;DHT22;1527;48.836;9.172;2022-09-01T14:33:39;24.40;99.90
3035;DHT22;1527;48.836;9.172;2022-09-01T14:36:16;24.40;99.90
3035;DHT22;1527;48.836;9.172;2022-09-01T14:38:49;24.30;99.90
3035;DHT22;1527;48.836;9.172;2022-09-01T14:41:21;24.40;99.90
3035;DHT22;1527;48.836;9.172;2022-09-01T14:43:55;24.40;99.90
3035;DHT22;1527;48.836;9.172;2022-09-01T14:46:30;24.40;99.90
3035;DHT22;1527;48.836;9.172;2022-09-01T14:49:02;24.40;99.90
3035;DHT22;1527;48.836;9.172;2022-09-01T14:51:32;24.40;99.90
3035;DHT22;1527;48.836;9.172;2022-09-01T14:54:23;24.50;99.90
3035;DHT22;1527;48.836;9.172;2022-09-01T14:56:52;24.40;99.90
3035;DHT22;1527;48.836;9.172;2022-09-01T14:59:43;24.50;99.90
3035;DHT22;1527;48.836;9.172;2022-09-01T15:02:12;24.40;99.90
3035;DHT22;1527;48.836;9.172;2022-09-01T15:04:42;24.30;99.90
3035;DHT22;1527;48.836;9.172;2022-09-01T15:07:12;24.40;99.90
3035;DHT22;1527;48.836;9.172;2022-09-01T15:09:41;24.40;99.90
3035;DHT22;1527;48.836;9.172;2022-09-01T15:12:11;24.50;99.90
3035;DHT22;1527;48.836;9.172;2022-09-01T15:14:40;24.50;99.90
3035;DHT22;1527;48.836;9.172;2022-09-01T15:17:12;24.50;99.90
3035;DHT22;1527;48.836;9.172;2022-09-01T15:19:42;24.50;99.90
3035;DHT22;1527;48.836;9.172;2022-09-01T15:22:11;24.50;99.90
3035;DHT22;1527;48.836;9.172;2022-09-01T15:24:42;24.60;99.90
3035;DHT22;1527;48.836;9.172;2022-09-01T15:27:13;24.60;99.90
3035;DHT22;1527;48.836;9.172;2022-09-01T15:29:42;24.60;99.90
3035;DHT22;1527;48.836;9.172;2022-09-01T15:32:16;24.70;99.90
3035;DHT22;1527;48.836;9.172;2022-09-01T15:34:55;24.70;99.90
3035;DHT22;1527;48.836;9.172;2022-09-01T15:37:24;24.60;99.90
3035;DHT22;1527;48.836;9.172;2022-09-01T15:39:54;24.50;99.90
3035;DHT22;1527;48.836;9.172;2022-09-01T15:42:24;24.50;99.90
3035;DHT22;1527;48.836;9.172;2022-09-01T15:44:53;24.60;99.90
3035;DHT22;1527;48.836;9.172;2022-09-01T15:47:24;24.50;99.90
3035;DHT22;1527;48.836;9.172;2022-09-01T15:49:54;24.40;99.90
3035;DHT22;1527;48.836;9.172;2022-09-01T15:52:26;24.20;99.90
3035;DHT22;1527;48.836;9.172;2022-09-01T15:54:56;24.30;99.90
3035;DHT22;1527;48.836;9.172;2022-09-01T15:57:26;24.10;99.90
3035;DHT22;1527;48.836;9.172;2022-09-01T15:59:56;24.10;99.90
3035;DHT22;1527;48.836;9.172;2022-09-01T16:02:27;24.10;99.90
3035;DHT22;1527;48.836;9.172;2022-09-01T16:04:56;24.00;99.90
3035;DHT22;1527;48.836;9.172;2022-09-01T16:07:26;24.10;99.90
3035;DHT22;1527;48.836;9.172;2022-09-01T16:09:56;24.10;99.90
3035;DHT22;1527;48.836;9.172;2022-09-01T16:12:27;24.30;99.90
3035;DHT22;1527;48.836;9.172;2022-09-01T16:14:57;24.20;99.90
3035;DHT22;1527;48.836;9.172;2022-09-01T16:17:49;24.30;99.90
3035;DHT22;1527;48.836;9.172;2022-09-01T16:20:27;24.30;99.90
3035;DHT22;1527;48.836;9.172;2022-09-01T16:23:12;24.30;99.90
3035;DHT22;1527;48.836;9.172;2022-09-01T16:25:45;24.30;99.90
3035;DHT22;1527;48.836;9.172;2022-09-01T16:28:23;24.30;99.90
3035;DHT22;1527;48.836;9.172;2022-09-01T16:31:01;24.30;99.90
3035;DHT22;1527;48.836;9.172;2022-09-01T16:33:34;24.20;99.90
3035;DHT22;1527;48.836;9.172;2022-09-01T16:36:16;24.30;99.90
3035;DHT22;1527;48.836;9.172;2022-09-01T16:38:57;24.10;99.90
3035;DHT22;1527;48.836;9.172;2022-09-01T16:41:40;24.10;99.90
3035;DHT22;1527;48.836;9.172;2022-09-01T16:44:38;24.10;99.90
3035;DHT22;1527;48.836;9.172;2022-09-01T16:47:32;24.10;99.90
3035;DHT22;1527;48.836;9.172;2022-09-01T16:50:16;24.10;99.90
3035;DHT22;1527;48.836;9.172;2022-09-01T16:53:08;24.10;99.90
3035;DHT22;1527;48.836;9.172;2022-09-01T16:55:56;24.00;99.90
3035;DHT22;1527;48.836;9.172;2022-09-01T16:58:37;24.00;99.90
3035;DHT22;1527;48.836;9.172;2022-09-01T17:01:23;23.90;99.90